sensor_id;sensor_type;location;lat;lon;timestamp;temperature;humidity
2783;DHT22;1399;47.072;15.452;2023-04-25T00:01:35;14.70;63.30
2783;DHT22;1399;47.072;15.452;2023-04-25T00:04:02;14.70;63.40
2783;DHT22;1399;47.072;15.452;2023-04-25T00:06:29;14.70;63.50
2783;DHT22;1399;47.072;15.452;2023-04-25T00:08:56;14.70;63.60
2783;DHT22;1399;47.072;15.452;2023-04-25T00:11:22;14.70;63.60
2783;DHT22;1399;47.072;15.452;2023-04-25T00:13:48;14.70;63.60
2783;DHT22;1399;47.072;15.452;2023-04-25T00:16:16;14.70;63.70
2783;DHT22;1399;47.072;15.452;2023-04-25T00:18:43;14.60;63.60
2783;DHT22;1399;47.072;15.452;2023-04-25T00:21:08;14.60;63.60
2783;DHT22;1399;47.072;15.452;2023-04-25T00:23:35;14.60;63.60
2783;DHT22;1399;47.072;15.452;2023-04-25T00:26:04;14.60;63.60
2783;DHT22;1399;47.072;15.452;2023-04-25T00:28:30;14.60;63.60
2783;DHT22;1399;47.072;15.452;2023-04-25T00:30:56;14.60;63.70
2783;DHT22;1399;47.072;15.452;2023-04-25T00:33:22;14.60;63.80
2783;DHT22;1399;47.072;15.452;2023-04-25T00:35:49;14.60;63.80
2783;DHT22;1399;47.072;15.452;2023-04-25T00:38:14;14.60;63.80
2783;DHT22;1399;47.072;15.452;2023-04-25T00:40:41;14.60;63.90
2783;DHT22;1399;47.072;15.452;2023-04-25T00:43:10;14.60;64.00
2783;DHT22;1399;47.072;15.452;2023-04-25T00:45:38;14.60;64.00
2783;DHT22;1399;47.072;15.452;2023-04-25T00:48:05;14.60;64.00
2783;DHT22;1399;47.072;15.452;2023-04-25T00:50:33;14.60;63.90
2783;DHT22;1399;47.072;15.452;2023-04-25T00:53:00;14.60;63.90
2783;DHT22;1399;47.072;15.452;2023-04-25T00:55:26;14.50;63.80
2783;DHT22;1399;47.072;15.452;2023-04-25T00:57:52;14.50;63.90
2783;DHT22;1399;47.072;15.452;2023-04-25T01:00:18;14.50;63.90
2783;DHT22;1399;47.072;15.452;2023-04-25T01:02:45;14.50;63.90
2783;DHT22;1399;47.072;15.452;2023-04-25T01:05:11;14.50;63.90
2783;DHT22;1399;47.072;15.452;2023-04-25T01:07:38;14.50;64.00
2783;DHT22;1399;47.072;15.452;2023-04-25T01:10:05;14.50;63.90
2783;DHT22;1399;47.072;15.452;2023-04-25T01:12:32;14.50;63.90
2783;DHT22;1399;47.072;15.452;2023-04-25T01:14:58;14.50;64.30
2783;DHT22;1399;47.072;15.452;2023-04-25T01:17:24;14.40;63.90
2783;DHT22;1399;47.072;15.452;2023-04-25T01:19:51;14.40;63.90
2783;DHT22;1399;47.072;15.452;2023-04-25T01:22:17;14.40;63.90
2783;DHT22;1399;47.072;15.452;2023-04-25T01:24:43;14.40;63.90
2783;DHT22;1399;47.072;15.452;2023-04-25T01:27:10;14.40;63.90
2783;DHT22;1399;47.072;15.452;2023-04-25T01:29:37;14.40;63.90
2783;DHT22;1399;47.072;15.452;2023-04-25T01:32:03;14.40;63.90
2783;DHT22;1399;47.072;15.452;2023-04-25T01:34:30;14.40;63.80
2783;DHT22;1399;47.072;15.452;2023-04-25T01:36:59;14.30;63.70
2783;DHT22;1399;47.072;15.452;2023-04-25T01:39:27;14.30;63.70
2783;DHT22;1399;47.072;15.452;2023-04-25T01:41:53;14.30;63.70
2783;DHT22;1399;47.072;15.452;2023-04-25T01:44:20;14.30;63.70
2783;DHT22;1399;47.072;15.452;2023-04-25T01:46:46;14.30;63.70
2783;DHT22;1399;47.072;15.452;2023-04-25T01:49:12;14.20;63.60
2783;DHT22;1399;47.072;15.452;2023-04-25T01:51:38;14.20;63.60
2783;DHT22;1399;47.072;15.452;2023-04-25T01:54:04;14.20;63.60
2783;DHT22;1399;47.072;15.452;2023-04-25T01:56:32;14.20;63.60
2783;DHT22;1399;47.072;15.452;2023-04-25T01:58:58;14.20;63.50
2783;DHT22;1399;47.072;15.452;2023-04-25T02:01:25;14.20;63.60
2783;DHT22;1399;47.072;15.452;2023-04-25T02:03:50;14.10;63.40
2783;DHT22;1399;47.072;15.452;2023-04-25T02:06:16;14.10;63.40
2783;DHT22;1399;47.072;15.452;2023-04-25T02:08:42;14.10;63.40
2783;DHT22;1399;47.072;15.452;2023-04-25T02:11:08;14.00;63.30
2783;DHT22;1399;47.072;15.452;2023-04-25T02:13:34;14.00;63.30
2783;DHT22;1399;47.072;15.452;2023-04-25T02:16:00;14.00;63.30
2783;DHT22;1399;47.072;15.452;2023-04-25T02:18:26;14.00;63.30
2783;DHT22;1399;47.072;15.452;2023-04-25T02:20:52;13.90;63.20
2783;DHT22;1399;47.072;15.452;2023-04-25T02:23:18;13.90;63.20
2783;DHT22;1399;47.072;15.452;2023-04-25T02:25:45;13.90;63.10
2783;DHT22;1399;47.072;15.452;2023-04-25T02:28:11;13.90;63.00
2783;DHT22;1399;47.072;15.452;2023-04-25T02:30:37;13.80;62.90
2783;DHT22;1399;47.072;15.452;2023-04-25T02:33:02;13.80;62.70
2783;DHT22;1399;47.072;15.452;2023-04-25T02:35:28;13.80;62.70
2783;DHT22;1399;47.072;15.452;2023-04-25T02:37:55;13.80;62.70
2783;DHT22;1399;47.072;15.452;2023-04-25T02:40:21;13.80;62.70
2783;DHT22;1399;47.072;15.452;2023-04-25T02:42:46;13.70;62.50
2783;DHT22;1399;47.072;15.452;2023-04-25T02:45:12;13.70;62.40
2783;DHT22;1399;47.072;15.452;2023-04-25T02:47:39;13.70;62.40
2783;DHT22;1399;47.072;15.452;2023-04-25T02:50:05;13.60;62.20
2783;DHT22;1399;47.072;15.452;2023-04-25T02:52:32;13.60;62.10
2783;DHT22;1399;47.072;15.452;2023-04-25T02:54:57;13.60;62.00
2783;DHT22;1399;47.072;15.452;2023-04-25T02:57:24;13.60;62.00
2783;DHT22;1399;47.072;15.452;2023-04-25T02:59:50;13.60;61.80
2783;DHT22;1399;47.072;15.452;2023-04-25T03:02:16;13.50;61.70
2783;DHT22;1399;47.072;15.452;2023-04-25T03:04:42;13.50;61.50
2783;DHT22;1399;47.072;15.452;2023-04-25T03:07:08;13.50;61.50
2783;DHT22;1399;47.072;15.452;2023-04-25T03:09:34;13.50;61.40
2783;DHT22;1399;47.072;15.452;2023-04-25T03:12:00;13.40;61.20
2783;DHT22;1399;47.072;15.452;2023-04-25T03:14:27;13.40;61.20
2783;DHT22;1399;47.072;15.452;2023-04-25T03:16:53;13.40;61.10
2783;DHT22;1399;47.072;15.452;2023-04-25T03:19:19;13.40;61.00
2783;DHT22;1399;47.072;15.452;2023-04-25T03:21:46;13.40;61.00
2783;DHT22;1399;47.072;15.452;2023-04-25T03:24:12;13.40;61.00
2783;DHT22;1399;47.072;15.452;2023-04-25T03:26:38;13.40;60.90
2783;DHT22;1399;47.072;15.452;2023-04-25T03:29:05;13.30;60.70
2783;DHT22;1399;47.072;15.452;2023-04-25T03:31:31;13.30;60.60
2783;DHT22;1399;47.072;15.452;2023-04-25T03:34:16;13.30;60.60
2783;DHT22;1399;47.072;15.452;2023-04-25T03:36:42;13.30;60.50
2783;DHT22;1399;47.072;15.452;2023-04-25T03:39:08;13.30;60.40
2783;DHT22;1399;47.072;15.452;2023-04-25T03:41:34;13.20;60.30
2783;DHT22;1399;47.072;15.452;2023-04-25T03:44:00;13.20;60.00
2783;DHT22;1399;47.072;15.452;2023-04-25T03:46:26;13.20;60.00
2783;DHT22;1399;47.072;15.452;2023-04-25T03:48:52;13.20;59.90
2783;DHT22;1399;47.072;15.452;2023-04-25T03:51:18;13.20;59.80
2783;DHT22;1399;47.072;15.452;2023-04-25T03:53:44;13.20;59.60
2783;DHT22;1399;47.072;15.452;2023-04-25T03:56:10;13.20;59.60
2783;DHT22;1399;47.072;15.452;2023-04-25T03:58:36;13.20;59.30
2783;DHT22;1399;47.072;15.452;2023-04-25T04:01:02;13.00;59.00
2783;DHT22;1399;47.072;15.452;2023-04-25T04:03:36;13.10;58.80
2783;DHT22;1399;47.072;15.452;2023-04-25T04:06:03;13.10;58.70
2783;DHT22;1399;47.072;15.452;2023-04-25T04:08:30;13.10;58.70
2783;DHT22;1399;47.072;15.452;2023-04-25T04:10:57;13.10;58.60
2783;DHT22;1399;47.072;15.452;2023-04-25T04:13:25;13.10;58.40
2783;DHT22;1399;47.072;15.452;2023-04-25T04:15:52;13.10;58.40
2783;DHT22;1399;47.072;15.452;2023-04-25T04:18:18;13.10;58.30
2783;DHT22;1399;47.072;15.452;2023-04-25T04:20:44;13.10;58.30
2783;DHT22;1399;47.072;15.452;2023-04-25T04:23:11;13.10;58.30
2783;DHT22;1399;47.072;15.452;2023-04-25T04:25:37;13.10;58.30
2783;DHT22;1399;47.072;15.452;2023-04-25T04:28:03;13.10;58.40
2783;DHT22;1399;47.072;15.452;2023-04-25T04:30:29;13.10;58.40
2783;DHT22;1399;47.072;15.452;2023-04-25T04:32:55;13.10;58.40
2783;DHT22;1399;47.072;15.452;2023-04-25T04:35:22;13.20;58.40
2783;DHT22;1399;47.072;15.452;2023-04-25T04:37:49;13.20;58.40
2783;DHT22;1399;47.072;15.452;2023-04-25T04:40:16;13.20;58.40
2783;DHT22;1399;47.072;15.452;2023-04-25T04:42:43;13.20;58.40
2783;DHT22;1399;47.072;15.452;2023-04-25T04:45:09;13.20;58.40
2783;DHT22;1399;47.072;15.452;2023-04-25T04:47:35;13.30;58.40
2783;DHT22;1399;47.072;15.452;2023-04-25T04:50:03;13.40;58.40
2783;DHT22;1399;47.072;15.452;2023-04-25T04:52:30;13.40;58.30
2783;DHT22;1399;47.072;15.452;2023-04-25T04:54:55;13.40;58.20
2783;DHT22;1399;47.072;15.452;2023-04-25T04:57:21;13.40;58.20
2783;DHT22;1399;47.072;15.452;2023-04-25T04:59:47;13.40;58.20
2783;DHT22;1399;47.072;15.452;2023-04-25T05:02:13;13.50;58.20
2783;DHT22;1399;47.072;15.452;2023-04-25T05:04:39;13.50;58.10
2783;DHT22;1399;47.072;15.452;2023-04-25T05:07:05;13.50;58.10
2783;DHT22;1399;47.072;15.452;2023-04-25T05:09:30;13.60;58.10
2783;DHT22;1399;47.072;15.452;2023-04-25T05:11:56;13.60;58.00
2783;DHT22;1399;47.072;15.452;2023-04-25T05:14:22;13.60;57.90
2783;DHT22;1399;47.072;15.452;2023-04-25T05:16:48;13.60;57.90
2783;DHT22;1399;47.072;15.452;2023-04-25T05:19:14;13.60;57.90
2783;DHT22;1399;47.072;15.452;2023-04-25T05:21:40;13.60;57.80
2783;DHT22;1399;47.072;15.452;2023-04-25T05:24:05;13.60;57.80
2783;DHT22;1399;47.072;15.452;2023-04-25T05:26:31;13.60;57.80
2783;DHT22;1399;47.072;15.452;2023-04-25T05:28:57;13.60;57.80
2783;DHT22;1399;47.072;15.452;2023-04-25T05:31:23;13.60;57.70
2783;DHT22;1399;47.072;15.452;2023-04-25T05:33:49;13.70;57.70
2783;DHT22;1399;47.072;15.452;2023-04-25T05:36:15;13.70;57.60
2783;DHT22;1399;47.072;15.452;2023-04-25T05:38:40;13.70;57.50
2783;DHT22;1399;47.072;15.452;2023-04-25T05:41:06;13.80;57.60
2783;DHT22;1399;47.072;15.452;2023-04-25T05:43:32;13.90;57.50
2783;DHT22;1399;47.072;15.452;2023-04-25T05:45:58;13.90;57.40
2783;DHT22;1399;47.072;15.452;2023-04-25T05:48:24;13.90;57.30
2783;DHT22;1399;47.072;15.452;2023-04-25T05:50:50;13.90;57.20
2783;DHT22;1399;47.072;15.452;2023-04-25T05:53:17;14.00;57.80
2783;DHT22;1399;47.072;15.452;2023-04-25T05:55:43;14.10;57.30
2783;DHT22;1399;47.072;15.452;2023-04-25T05:58:09;14.10;57.30
2783;DHT22;1399;47.072;15.452;2023-04-25T06:00:35;14.20;57.30
2783;DHT22;1399;47.072;15.452;2023-04-25T06:03:00;14.50;57.30
2783;DHT22;1399;47.072;15.452;2023-04-25T06:05:26;15.80;56.40
2783;DHT22;1399;47.072;15.452;2023-04-25T06:07:52;17.40;54.00
2783;DHT22;1399;47.072;15.452;2023-04-25T06:10:18;18.90;51.30
2783;DHT22;1399;47.072;15.452;2023-04-25T06:12:44;20.20;48.80
2783;DHT22;1399;47.072;15.452;2023-04-25T06:15:10;21.20;46.60
2783;DHT22;1399;47.072;15.452;2023-04-25T06:17:35;22.10;44.80
2783;DHT22;1399;47.072;15.452;2023-04-25T06:20:01;22.80;43.40
2783;DHT22;1399;47.072;15.452;2023-04-25T06:22:27;23.30;42.00
2783;DHT22;1399;47.072;15.452;2023-04-25T06:24:53;23.60;40.80
2783;DHT22;1399;47.072;15.452;2023-04-25T06:27:18;23.70;39.90
2783;DHT22;1399;47.072;15.452;2023-04-25T06:29:44;23.70;39.40
2783;DHT22;1399;47.072;15.452;2023-04-25T06:32:10;23.60;39.30
2783;DHT22;1399;47.072;15.452;2023-04-25T06:34:35;23.30;39.50
2783;DHT22;1399;47.072;15.452;2023-04-25T06:37:01;23.00;40.00
2783;DHT22;1399;47.072;15.452;2023-04-25T06:39:27;22.70;40.50
2783;DHT22;1399;47.072;15.452;2023-04-25T06:41:52;22.40;41.00
2783;DHT22;1399;47.072;15.452;2023-04-25T06:44:18;22.20;41.60
2783;DHT22;1399;47.072;15.452;2023-04-25T06:46:44;22.00;42.10
2783;DHT22;1399;47.072;15.452;2023-04-25T06:49:10;21.80;42.70
2783;DHT22;1399;47.072;15.452;2023-04-25T06:51:35;21.60;43.00
2783;DHT22;1399;47.072;15.452;2023-04-25T06:54:01;21.40;43.50
2783;DHT22;1399;47.072;15.452;2023-04-25T06:56:28;21.30;43.90
2783;DHT22;1399;47.072;15.452;2023-04-25T06:58:56;21.10;44.80
2783;DHT22;1399;47.072;15.452;2023-04-25T07:01:21;20.90;44.40
2783;DHT22;1399;47.072;15.452;2023-04-25T07:03:47;20.70;44.80
2783;DHT22;1399;47.072;15.452;2023-04-25T07:06:13;20.60;45.30
2783;DHT22;1399;47.072;15.452;2023-04-25T07:08:38;20.40;46.30
2783;DHT22;1399;47.072;15.452;2023-04-25T07:11:04;20.20;46.10
2783;DHT22;1399;47.072;15.452;2023-04-25T07:13:30;20.00;47.20
2783;DHT22;1399;47.072;15.452;2023-04-25T07:15:55;19.80;46.90
2783;DHT22;1399;47.072;15.452;2023-04-25T07:18:22;19.70;47.30
2783;DHT22;1399;47.072;15.452;2023-04-25T07:20:48;19.60;47.60
2783;DHT22;1399;47.072;15.452;2023-04-25T07:23:13;19.50;47.80
2783;DHT22;1399;47.072;15.452;2023-04-25T07:25:39;19.30;47.90
2783;DHT22;1399;47.072;15.452;2023-04-25T07:28:05;19.30;48.00
2783;DHT22;1399;47.072;15.452;2023-04-25T07:30:31;19.20;48.10
2783;DHT22;1399;47.072;15.452;2023-04-25T07:32:57;19.10;48.30
2783;DHT22;1399;47.072;15.452;2023-04-25T07:35:22;19.10;48.50
2783;DHT22;1399;47.072;15.452;2023-04-25T07:37:49;19.00;48.60
2783;DHT22;1399;47.072;15.452;2023-04-25T07:40:15;19.00;48.60
2783;DHT22;1399;47.072;15.452;2023-04-25T07:42:41;18.90;48.40
2783;DHT22;1399;47.072;15.452;2023-04-25T07:45:08;18.90;48.30
2783;DHT22;1399;47.072;15.452;2023-04-25T07:47:35;18.90;48.30
2783;DHT22;1399;47.072;15.452;2023-04-25T07:50:01;18.90;48.40
2783;DHT22;1399;47.072;15.452;2023-04-25T07:52:26;18.90;48.40
2783;DHT22;1399;47.072;15.452;2023-04-25T07:54:52;18.90;48.00
2783;DHT22;1399;47.072;15.452;2023-04-25T07:57:19;18.80;47.80
2783;DHT22;1399;47.072;15.452;2023-04-25T07:59:45;18.80;48.00
2783;DHT22;1399;47.072;15.452;2023-04-25T08:02:11;18.80;48.10
2783;DHT22;1399;47.072;15.452;2023-04-25T08:04:36;18.80;48.20
2783;DHT22;1399;47.072;15.452;2023-04-25T08:07:02;18.80;48.50
2783;DHT22;1399;47.072;15.452;2023-04-25T08:09:28;18.90;48.80
2783;DHT22;1399;47.072;15.452;2023-04-25T08:11:54;18.90;48.90
2783;DHT22;1399;47.072;15.452;2023-04-25T08:14:20;18.90;49.00
2783;DHT22;1399;47.072;15.452;2023-04-25T08:16:46;19.00;49.20
2783;DHT22;1399;47.072;15.452;2023-04-25T08:19:11;19.00;49.30
2783;DHT22;1399;47.072;15.452;2023-04-25T08:21:37;19.10;49.40
2783;DHT22;1399;47.072;15.452;2023-04-25T08:24:03;19.10;49.30
2783;DHT22;1399;47.072;15.452;2023-04-25T08:26:29;19.20;49.50
2783;DHT22;1399;47.072;15.452;2023-04-25T08:28:55;19.30;49.50
2783;DHT22;1399;47.072;15.452;2023-04-25T08:31:21;19.30;49.50
2783;DHT22;1399;47.072;15.452;2023-04-25T08:33:47;19.40;49.50
2783;DHT22;1399;47.072;15.452;2023-04-25T08:36:12;19.40;49.50
2783;DHT22;1399;47.072;15.452;2023-04-25T08:38:38;19.50;49.30
2783;DHT22;1399;47.072;15.452;2023-04-25T08:41:05;19.60;49.20
2783;DHT22;1399;47.072;15.452;2023-04-25T08:43:32;19.60;49.00
2783;DHT22;1399;47.072;15.452;2023-04-25T08:46:01;19.60;48.90
2783;DHT22;1399;47.072;15.452;2023-04-25T08:48:28;19.70;49.00
2783;DHT22;1399;47.072;15.452;2023-04-25T08:50:55;19.70;48.90
2783;DHT22;1399;47.072;15.452;2023-04-25T08:53:30;19.70;48.60
2783;DHT22;1399;47.072;15.452;2023-04-25T08:55:59;19.70;48.60
2783;DHT22;1399;47.072;15.452;2023-04-25T08:58:27;19.70;48.50
2783;DHT22;1399;47.072;15.452;2023-04-25T09:00:53;19.70;48.60
2783;DHT22;1399;47.072;15.452;2023-04-25T09:03:19;19.70;48.50
2783;DHT22;1399;47.072;15.452;2023-04-25T09:05:45;19.70;48.60
2783;DHT22;1399;47.072;15.452;2023-04-25T09:08:11;19.70;48.70
2783;DHT22;1399;47.072;15.452;2023-04-25T09:10:37;19.70;48.60
2783;DHT22;1399;47.072;15.452;2023-04-25T09:13:14;19.70;48.20
2783;DHT22;1399;47.072;15.452;2023-04-25T09:15:56;19.80;48.30
2783;DHT22;1399;47.072;15.452;2023-04-25T09:18:31;19.80;48.40
2783;DHT22;1399;47.072;15.452;2023-04-25T09:21:08;19.80;48.20
2783;DHT22;1399;47.072;15.452;2023-04-25T09:23:44;19.90;48.00
2783;DHT22;1399;47.072;15.452;2023-04-25T09:26:14;19.90;48.10
2783;DHT22;1399;47.072;15.452;2023-04-25T09:28:40;19.90;47.50
2783;DHT22;1399;47.072;15.452;2023-04-25T09:31:09;19.90;47.50
2783;DHT22;1399;47.072;15.452;2023-04-25T09:33:35;20.00;47.50
2783;DHT22;1399;47.072;15.452;2023-04-25T09:36:10;20.00;47.20
2783;DHT22;1399;47.072;15.452;2023-04-25T09:38:44;20.00;47.00
2783;DHT22;1399;47.072;15.452;2023-04-25T09:41:11;20.10;47.00
2783;DHT22;1399;47.072;15.452;2023-04-25T09:43:37;20.10;46.90
2783;DHT22;1399;47.072;15.452;2023-04-25T09:46:08;20.10;46.70
2783;DHT22;1399;47.072;15.452;2023-04-25T09:48:35;20.10;46.20
2783;DHT22;1399;47.072;15.452;2023-04-25T09:51:11;20.10;45.80
2783;DHT22;1399;47.072;15.452;2023-04-25T09:53:40;20.10;45.50
2783;DHT22;1399;47.072;15.452;2023-04-25T09:56:09;20.10;45.70
2783;DHT22;1399;47.072;15.452;2023-04-25T09:58:36;20.20;45.70
2783;DHT22;1399;47.072;15.452;2023-04-25T10:01:04;20.20;45.60
2783;DHT22;1399;47.072;15.452;2023-04-25T10:03:31;20.20;45.40
2783;DHT22;1399;47.072;15.452;2023-04-25T10:05:59;20.20;45.30
2783;DHT22;1399;47.072;15.452;2023-04-25T10:08:31;20.30;45.40
2783;DHT22;1399;47.072;15.452;2023-04-25T10:11:00;20.30;45.20
2783;DHT22;1399;47.072;15.452;2023-04-25T10:13:28;20.30;44.90
2783;DHT22;1399;47.072;15.452;2023-04-25T10:15:56;20.30;44.70
2783;DHT22;1399;47.072;15.452;2023-04-25T10:18:24;20.40;44.70
2783;DHT22;1399;47.072;15.452;2023-04-25T10:20:50;20.30;44.20
2783;DHT22;1399;47.072;15.452;2023-04-25T10:23:16;20.40;44.80
2783;DHT22;1399;47.072;15.452;2023-04-25T10:25:42;20.40;45.20
2783;DHT22;1399;47.072;15.452;2023-04-25T10:28:08;20.40;45.10
2783;DHT22;1399;47.072;15.452;2023-04-25T10:30:34;20.40;45.40
2783;DHT22;1399;47.072;15.452;2023-04-25T10:33:00;20.30;44.90
2783;DHT22;1399;47.072;15.452;2023-04-25T10:38:11;20.30;45.10
2783;DHT22;1399;47.072;15.452;2023-04-25T10:40:39;20.20;44.40
2783;DHT22;1399;47.072;15.452;2023-04-25T10:43:34;20.20;44.90
2783;DHT22;1399;47.072;15.452;2023-04-25T10:46:00;20.20;44.60
2783;DHT22;1399;47.072;15.452;2023-04-25T10:51:08;20.10;43.90
2783;DHT22;1399;47.072;15.452;2023-04-25T10:53:34;20.10;43.50
2783;DHT22;1399;47.072;15.452;2023-04-25T10:56:00;20.10;43.30
2783;DHT22;1399;47.072;15.452;2023-04-25T10:58:26;20.10;43.50
2783;DHT22;1399;47.072;15.452;2023-04-25T11:00:52;20.10;43.40
2783;DHT22;1399;47.072;15.452;2023-04-25T11:03:21;20.20;43.30
2783;DHT22;1399;47.072;15.452;2023-04-25T11:05:48;20.20;42.80
2783;DHT22;1399;47.072;15.452;2023-04-25T11:08:25;20.20;42.90
2783;DHT22;1399;47.072;15.452;2023-04-25T11:10:56;20.30;43.10
2783;DHT22;1399;47.072;15.452;2023-04-25T11:13:22;20.30;42.90
2783;DHT22;1399;47.072;15.452;2023-04-25T11:15:51;20.30;42.70
2783;DHT22;1399;47.072;15.452;2023-04-25T11:18:17;20.30;42.90
2783;DHT22;1399;47.072;15.452;2023-04-25T11:20:44;20.30;42.60
2783;DHT22;1399;47.072;15.452;2023-04-25T11:23:10;20.30;42.30
2783;DHT22;1399;47.072;15.452;2023-04-25T11:25:36;20.30;41.90
2783;DHT22;1399;47.072;15.452;2023-04-25T11:28:02;20.20;41.50
2783;DHT22;1399;47.072;15.452;2023-04-25T11:30:28;20.20;40.90
2783;DHT22;1399;47.072;15.452;2023-04-25T11:32:56;20.10;39.80
2783;DHT22;1399;47.072;15.452;2023-04-25T11:35:22;20.10;39.30
2783;DHT22;1399;47.072;15.452;2023-04-25T11:37:48;20.10;39.30
2783;DHT22;1399;47.072;15.452;2023-04-25T11:40:15;20.20;39.50
2783;DHT22;1399;47.072;15.452;2023-04-25T11:42:46;20.20;39.30
2783;DHT22;1399;47.072;15.452;2023-04-25T11:45:13;20.30;38.80
2783;DHT22;1399;47.072;15.452;2023-04-25T11:47:39;20.30;38.40
2783;DHT22;1399;47.072;15.452;2023-04-25T11:50:07;20.30;38.20
2783;DHT22;1399;47.072;15.452;2023-04-25T11:52:37;20.40;38.00
2783;DHT22;1399;47.072;15.452;2023-04-25T11:55:19;20.40;37.50
2783;DHT22;1399;47.072;15.452;2023-04-25T11:57:47;20.40;36.80
2783;DHT22;1399;47.072;15.452;2023-04-25T12:00:21;20.40;36.20
2783;DHT22;1399;47.072;15.452;2023-04-25T12:02:54;20.40;35.10
2783;DHT22;1399;47.072;15.452;2023-04-25T12:05:23;20.30;34.20
2783;DHT22;1399;47.072;15.452;2023-04-25T12:07:49;20.30;33.90
2783;DHT22;1399;47.072;15.452;2023-04-25T12:10:17;20.30;33.60
2783;DHT22;1399;47.072;15.452;2023-04-25T12:12:45;20.30;33.60
2783;DHT22;1399;47.072;15.452;2023-04-25T12:15:17;20.30;33.50
2783;DHT22;1399;47.072;15.452;2023-04-25T12:17:48;20.30;33.40
2783;DHT22;1399;47.072;15.452;2023-04-25T12:20:19;20.30;33.40
2783;DHT22;1399;47.072;15.452;2023-04-25T12:22:47;20.30;33.20
2783;DHT22;1399;47.072;15.452;2023-04-25T12:28:31;20.40;33.30
2783;DHT22;1399;47.072;15.452;2023-04-25T12:33:32;20.40;33.70
2783;DHT22;1399;47.072;15.452;2023-04-25T12:35:58;20.50;34.10
2783;DHT22;1399;47.072;15.452;2023-04-25T12:38:29;20.50;34.60
2783;DHT22;1399;47.072;15.452;2023-04-25T12:40:56;20.50;35.00
2783;DHT22;1399;47.072;15.452;2023-04-25T12:43:22;20.50;35.10
2783;DHT22;1399;47.072;15.452;2023-04-25T12:45:49;20.50;35.30
2783;DHT22;1399;47.072;15.452;2023-04-25T12:48:18;20.50;35.50
2783;DHT22;1399;47.072;15.452;2023-04-25T12:50:44;20.50;35.50
2783;DHT22;1399;47.072;15.452;2023-04-25T12:53:11;20.50;35.90
2783;DHT22;1399;47.072;15.452;2023-04-25T12:55:37;20.60;36.40
2783;DHT22;1399;47.072;15.452;2023-04-25T12:58:02;20.60;36.90
2783;DHT22;1399;47.072;15.452;2023-04-25T13:00:29;20.60;36.60
2783;DHT22;1399;47.072;15.452;2023-04-25T13:02:56;20.60;36.30
2783;DHT22;1399;47.072;15.452;2023-04-25T13:05:21;20.60;36.30
2783;DHT22;1399;47.072;15.452;2023-04-25T13:07:47;20.60;36.30
2783;DHT22;1399;47.072;15.452;2023-04-25T13:10:13;20.60;36.30
2783;DHT22;1399;47.072;15.452;2023-04-25T13:12:39;20.60;36.50
2783;DHT22;1399;47.072;15.452;2023-04-25T13:15:05;20.60;36.30
2783;DHT22;1399;47.072;15.452;2023-04-25T13:17:31;20.60;36.30
2783;DHT22;1399;47.072;15.452;2023-04-25T13:19:56;20.60;36.50
2783;DHT22;1399;47.072;15.452;2023-04-25T13:22:22;20.60;36.80
2783;DHT22;1399;47.072;15.452;2023-04-25T13:24:48;20.50;36.50
2783;DHT22;1399;47.072;15.452;2023-04-25T13:27:13;20.50;36.70
2783;DHT22;1399;47.072;15.452;2023-04-25T13:29:39;20.50;37.10
2783;DHT22;1399;47.072;15.452;2023-04-25T13:32:06;20.50;37.00
2783;DHT22;1399;47.072;15.452;2023-04-25T13:34:32;20.50;37.40
2783;DHT22;1399;47.072;15.452;2023-04-25T13:36:58;20.50;38.00
2783;DHT22;1399;47.072;15.452;2023-04-25T13:39:24;20.50;38.20
2783;DHT22;1399;47.072;15.452;2023-04-25T13:41:49;20.40;38.90
2783;DHT22;1399;47.072;15.452;2023-04-25T13:44:15;20.40;39.70
2783;DHT22;1399;47.072;15.452;2023-04-25T13:46:41;20.40;40.10
2783;DHT22;1399;47.072;15.452;2023-04-25T13:49:07;20.30;40.50
2783;DHT22;1399;47.072;15.452;2023-04-25T13:51:33;20.40;41.10
2783;DHT22;1399;47.072;15.452;2023-04-25T13:53:58;20.40;41.40
2783;DHT22;1399;47.072;15.452;2023-04-25T13:56:24;20.30;41.40
2783;DHT22;1399;47.072;15.452;2023-04-25T13:58:50;20.40;42.00
2783;DHT22;1399;47.072;15.452;2023-04-25T14:01:17;20.30;42.10
2783;DHT22;1399;47.072;15.452;2023-04-25T14:03:43;20.30;42.10
2783;DHT22;1399;47.072;15.452;2023-04-25T14:06:08;20.30;42.30
2783;DHT22;1399;47.072;15.452;2023-04-25T14:08:34;20.20;42.20
2783;DHT22;1399;47.072;15.452;2023-04-25T14:11:00;20.20;42.70
2783;DHT22;1399;47.072;15.452;2023-04-25T14:13:26;20.20;43.10
2783;DHT22;1399;47.072;15.452;2023-04-25T14:15:52;20.20;43.00
2783;DHT22;1399;47.072;15.452;2023-04-25T14:18:18;20.20;42.90
2783;DHT22;1399;47.072;15.452;2023-04-25T14:20:45;20.20;43.00
2783;DHT22;1399;47.072;15.452;2023-04-25T14:23:11;20.20;42.60
2783;DHT22;1399;47.072;15.452;2023-04-25T14:25:36;20.10;42.50
2783;DHT22;1399;47.072;15.452;2023-04-25T14:28:03;20.10;42.50
2783;DHT22;1399;47.072;15.452;2023-04-25T14:30:29;20.10;42.60
2783;DHT22;1399;47.072;15.452;2023-04-25T14:32:55;20.10;42.70
2783;DHT22;1399;47.072;15.452;2023-04-25T14:35:20;20.10;42.70
2783;DHT22;1399;47.072;15.452;2023-04-25T14:37:46;20.10;42.60
2783;DHT22;1399;47.072;15.452;2023-04-25T14:40:13;20.10;42.70
2783;DHT22;1399;47.072;15.452;2023-04-25T14:42:40;20.00;42.70
2783;DHT22;1399;47.072;15.452;2023-04-25T14:45:07;19.90;42.50
2783;DHT22;1399;47.072;15.452;2023-04-25T14:47:36;19.90;42.50
2783;DHT22;1399;47.072;15.452;2023-04-25T14:50:03;19.80;42.40
2783;DHT22;1399;47.072;15.452;2023-04-25T14:52:29;19.70;42.40
2783;DHT22;1399;47.072;15.452;2023-04-25T14:54:56;19.60;42.20
2783;DHT22;1399;47.072;15.452;2023-04-25T14:57:21;19.60;42.10
2783;DHT22;1399;47.072;15.452;2023-04-25T14:59:47;19.50;41.90
2783;DHT22;1399;47.072;15.452;2023-04-25T15:02:13;19.50;42.00
2783;DHT22;1399;47.072;15.452;2023-04-25T15:04:39;19.40;41.90
2783;DHT22;1399;47.072;15.452;2023-04-25T15:07:05;19.40;41.80
2783;DHT22;1399;47.072;15.452;2023-04-25T15:09:30;19.40;41.80
2783;DHT22;1399;47.072;15.452;2023-04-25T15:11:57;19.40;41.60
2783;DHT22;1399;47.072;15.452;2023-04-25T15:14:23;19.30;41.30
2783;DHT22;1399;47.072;15.452;2023-04-25T15:16:48;19.40;41.20
2783;DHT22;1399;47.072;15.452;2023-04-25T15:19:14;19.30;40.90
2783;DHT22;1399;47.072;15.452;2023-04-25T15:21:40;19.30;40.70
2783;DHT22;1399;47.072;15.452;2023-04-25T15:24:06;19.30;40.50
2783;DHT22;1399;47.072;15.452;2023-04-25T15:26:33;19.30;40.20
2783;DHT22;1399;47.072;15.452;2023-04-25T15:28:58;19.30;39.70
2783;DHT22;1399;47.072;15.452;2023-04-25T15:31:24;19.30;39.10
2783;DHT22;1399;47.072;15.452;2023-04-25T15:33:50;19.30;38.60
2783;DHT22;1399;47.072;15.452;2023-04-25T15:36:16;19.30;37.70
2783;DHT22;1399;47.072;15.452;2023-04-25T15:38:43;19.30;37.20
2783;DHT22;1399;47.072;15.452;2023-04-25T15:41:09;19.30;36.30
2783;DHT22;1399;47.072;15.452;2023-04-25T15:43:35;19.30;35.40
2783;DHT22;1399;47.072;15.452;2023-04-25T15:46:03;19.30;34.70
2783;DHT22;1399;47.072;15.452;2023-04-25T15:48:30;19.30;33.90
2783;DHT22;1399;47.072;15.452;2023-04-25T15:50:57;19.20;33.20
2783;DHT22;1399;47.072;15.452;2023-04-25T15:53:23;19.20;32.70